This is the latest recevied weather packets stored in our database for station/object SP9MUF-14. If no packets are shown the sender has not sent any weather packets the latest 10 day(s).
| Time | Temp. | Humidity | Pressure | Rain* | Wind** | Luminosity | Snow |
|---|---|---|---|---|---|---|---|
| 1787822924 | 22.78° C | 53% | 1021.5 hPa | 0 mm | - | 592 W/m² | - |
| 1787821714 | 21.67° C | 59% | 1021.5 hPa | 0 mm | - | 566 W/m² | - |
| 1787821412 | 21.67° C | 58% | 1021.5 hPa | 0 mm | - | 559 W/m² | - |
| 1787820841 | 21.67° C | 62% | 1021.5 hPa | 0 mm | - | 549 W/m² | - |
| 1787820808 | 21.67° C | 62% | 1021.5 hPa | 0 mm | - | 549 W/m² | - |
| 1787820506 | 21.67° C | 60% | 1021.6 hPa | 0 mm | - | 539 W/m² | - |
| 1787820203 | 21.67° C | 62% | 1021.5 hPa | 0 mm | - | 533 W/m² | - |
| 1787819903 | 21.67° C | 59% | 1021.6 hPa | 0 mm | - | 515 W/m² | - |
| 1787819647 | 20.56° C | 61% | 1021.6 hPa | 0 mm | - | 517 W/m² | - |
| 1787819599 | 20.56° C | 61% | 1021.6 hPa | 0 mm | - | 517 W/m² | - |
| 1787818692 | 20.56° C | 62% | 1021.7 hPa | 0 mm | - | 484 W/m² | - |
| 1787818390 | 20° C | 64% | 1021.7 hPa | 0 mm | - | 471 W/m² | - |
| 1787817785 | 20° C | 65% | 1021.8 hPa | 0 mm | - | 453 W/m² | - |
| 1787817483 | 20° C | 66% | 1021.7 hPa | 0 mm | - | 440 W/m² | - |
| 1787817181 | 18.89° C | 66% | 1021.7 hPa | 0 mm | - | 433 W/m² | - |
| 1787816577 | 18.89° C | 67% | 1021.7 hPa | 0 mm | - | 412 W/m² | - |
| 1787816275 | 18.89° C | 67% | 1021.7 hPa | 0 mm | - | 398 W/m² | - |
| 1787815972 | 17.78° C | 67% | 1021.7 hPa | 0 mm | - | 388 W/m² | - |
| 1787815670 | 17.78° C | 70% | 1021.7 hPa | 0 mm | - | 374 W/m² | - |
| 1787815368 | 17.78° C | 69% | 1021.8 hPa | 0 mm | - | 356 W/m² | - |
| 1787815066 | 17.78° C | 69% | 1021.7 hPa | 0 mm | - | 342 W/m² | - |
| 1787814461 | 16.67° C | 71% | 1021.9 hPa | 0 mm | - | 108 W/m² | - |
| 1787814159 | 16.67° C | 71% | 1021.9 hPa | 0 mm | - | 54 W/m² | - |
| 1787813857 | 16.67° C | 72% | 1021.8 hPa | 0 mm | - | 52 W/m² | - |
| 1787813554 | 16.67° C | 71% | 1021.9 hPa | 0 mm | - | 51 W/m² | - |
* Rain latest hour (hover to see other rain measurements)
** Current wind speed in m/s (hover to see current wind gust speed)